Time;durP1;ratioP1;P1;durP2;ratioP2;P2;SDS_P1;SDS_P2;PMS_P1;PMS_P2;Temp;Humidity;BMP_temperature;BMP_pressure;BME280_temperature;BME280_humidity;BME280_pressure;Samples;Min_cycle;Max_cycle;Signal;HPM_P1;HPM_P2
2023/03/08 00:00:33;;;;;;;;;;;1.10;99.90;;;;;;4877972;29;20282;-64
2023/03/08 00:02:58;;;;;;;;;;;0.70;99.90;;;;;;4877908;29;20434;-64
2023/03/08 00:05:24;;;;;;;;;;;0.70;99.90;;;;;;4878988;29;20360;-64
2023/03/08 00:07:52;;;;;;;;;;;0.70;99.90;;;;;;4881289;29;20026;-63
2023/03/08 00:10:18;;;;;;;;;;;0.70;99.90;;;;;;4880977;29;19980;-64
2023/03/08 00:12:44;;;;;;;;;;;0.70;99.90;;;;;;4864796;29;19986;-63
2023/03/08 00:15:09;;;;;;;;;;;0.70;99.90;;;;;;4880783;29;20454;-64
2023/03/08 00:17:36;;;;;;;;;;;0.60;99.90;;;;;;4880099;29;19935;-62
2023/03/08 00:20:04;;;;;;;;;;;0.70;99.90;;;;;;4881129;29;20300;-62
2023/03/08 00:22:34;;;;;;;;;;;0.70;99.90;;;;;;4864362;29;20168;-63
2023/03/08 00:24:59;;;;;;;;;;;0.70;99.90;;;;;;4864204;29;19934;-64
2023/03/08 00:27:25;;;;;;;;;;;0.70;99.90;;;;;;4864238;29;19932;-63
2023/03/08 00:29:50;;;;;;;;;;;0.80;99.90;;;;;;4864360;29;19927;-63
2023/03/08 00:32:16;;;;;;;;;;;0.70;99.90;;;;;;4880697;29;19928;-64
2023/03/08 00:34:45;;;;;;;;;;;0.70;99.90;;;;;;4864205;29;19928;-64
2023/03/08 00:37:10;;;;;;;;;;;0.70;99.90;;;;;;4880625;29;19943;-64
2023/03/08 00:39:36;;;;;;;;;;;0.60;99.90;;;;;;4864160;29;20026;-64
2023/03/08 00:42:01;;;;;;;;;;;0.70;99.90;;;;;;4880483;29;19928;-64
2023/03/08 00:44:27;;;;;;;;;;;0.50;99.90;;;;;;4880254;29;19927;-63
2023/03/08 00:46:52;;;;;;;;;;;0.50;99.90;;;;;;4864122;29;19991;-63
2023/03/08 00:49:18;;;;;;;;;;;1.80;99.90;;;;;;4879929;29;19935;-64
2023/03/08 00:51:44;;;;;;;;;;;0.40;99.90;;;;;;4863916;29;19938;-64
2023/03/08 00:54:09;;;;;;;;;;;0.50;99.90;;;;;;4864282;29;19934;-63
2023/03/08 00:56:35;;;;;;;;;;;0.40;99.90;;;;;;4880243;29;19934;-63
2023/03/08 00:59:00;;;;;;;;;;;0.30;99.90;;;;;;4832782;29;20015;-64
2023/03/08 01:01:26;;;;;;;;;;;0.30;99.90;;;;;;4880247;29;19928;-64
2023/03/08 01:03:52;;;;;;;;;;;1.10;99.90;;;;;;4863652;29;20396;-63
2023/03/08 01:06:17;;;;;;;;;;;0.30;99.90;;;;;;4880005;29;19935;-63
2023/03/08 01:08:43;;;;;;;;;;;0.30;99.90;;;;;;4880213;29;20313;-63
2023/03/08 01:11:17;;;;;;;;;;;0.20;99.90;;;;;;4879102;29;19954;-63
2023/03/08 01:13:42;;;;;;;;;;;0.20;99.90;;;;;;4880286;29;19927;-62
2023/03/08 01:16:19;;;;;;;;;;;0.20;99.90;;;;;;4863053;29;19928;-63
2023/03/08 01:18:44;;;;;;;;;;;0.10;99.90;;;;;;4879887;29;19995;-64
2023/03/08 01:21:10;;;;;;;;;;;0.10;99.90;;;;;;4863650;29;19928;-63
2023/03/08 01:23:36;;;;;;;;;;;0.80;99.90;;;;;;4878898;29;19928;-63
2023/03/08 01:26:03;;;;;;;;;;;0.20;99.90;;;;;;4879723;29;19928;-64
2023/03/08 01:28:30;;;;;;;;;;;0.10;99.90;;;;;;4862837;29;19935;-63
2023/03/08 01:31:05;;;;;;;;;;;0.10;99.90;;;;;;4879891;29;19928;-63
2023/03/08 01:33:31;;;;;;;;;;;0.10;99.90;;;;;;4879431;29;19928;-64
2023/03/08 01:35:57;;;;;;;;;;;0.10;99.90;;;;;;4879666;29;19928;-62
2023/03/08 01:38:23;;;;;;;;;;;0.00;99.90;;;;;;4862475;29;20273;-63
2023/03/08 01:40:48;;;;;;;;;;;0.00;99.90;;;;;;4879219;29;19960;-63
2023/03/08 01:43:21;;;;;;;;;;;0.00;99.90;;;;;;4879641;29;19938;-63
2023/03/08 01:46:05;;;;;;;;;;;0.00;99.90;;;;;;4879469;29;19934;-63
2023/03/08 01:48:33;;;;;;;;;;;0.00;99.90;;;;;;4879083;29;19976;-64
2023/03/08 01:50:59;;;;;;;;;;;-0.10;99.90;;;;;;4879442;29;19928;-63
2023/03/08 01:53:25;;;;;;;;;;;-0.10;99.90;;;;;;4879201;29;19928;-64
2023/03/08 01:55:51;;;;;;;;;;;-0.10;99.90;;;;;;4863224;29;19950;-64
2023/03/08 01:58:16;;;;;;;;;;;-0.10;99.90;;;;;;4879431;29;19935;-64
2023/03/08 02:00:42;;;;;;;;;;;-0.10;99.90;;;;;;4862402;29;19980;-63
2023/03/08 02:03:09;;;;;;;;;;;0.40;99.90;;;;;;4879546;29;20384;-63
2023/03/08 02:05:36;;;;;;;;;;;-0.10;99.90;;;;;;4878999;29;19995;-64
2023/03/08 02:08:01;;;;;;;;;;;-0.20;99.90;;;;;;4847245;29;19928;-65
2023/03/08 02:10:27;;;;;;;;;;;-0.20;99.90;;;;;;4878595;29;19999;-63
2023/03/08 02:12:53;;;;;;;;;;;0.70;99.90;;;;;;4879110;29;19928;-64
2023/03/08 02:15:19;;;;;;;;;;;0.10;99.90;;;;;;4862605;29;20052;-63
2023/03/08 02:17:45;;;;;;;;;;;-0.20;99.90;;;;;;4878627;29;20299;-64
2023/03/08 02:20:11;;;;;;;;;;;-0.30;99.90;;;;;;4862337;29;20351;-62
2023/03/08 02:22:37;;;;;;;;;;;-0.20;99.90;;;;;;4878519;29;19935;-63
2023/03/08 02:25:12;;;;;;;;;;;-0.20;99.90;;;;;;4878776;29;20071;-63
2023/03/08 02:27:37;;;;;;;;;;;0.40;99.90;;;;;;4878465;29;19928;-64
2023/03/08 02:30:03;;;;;;;;;;;0.30;99.90;;;;;;4878858;29;19924;-62
2023/03/08 02:32:29;;;;;;;;;;;-0.30;99.90;;;;;;4878414;29;19977;-62
2023/03/08 02:34:54;;;;;;;;;;;-0.30;99.90;;;;;;4878347;29;19927;-64
2023/03/08 02:37:20;;;;;;;;;;;-0.30;99.90;;;;;;4862523;29;19960;-64
2023/03/08 02:39:45;;;;;;;;;;;-0.30;99.90;;;;;;4878551;29;20388;-63
2023/03/08 02:42:11;;;;;;;;;;;-0.30;99.90;;;;;;4862111;29;20335;-63
2023/03/08 02:44:36;;;;;;;;;;;-0.30;99.90;;;;;;4861965;29;19924;-64
2023/03/08 02:47:02;;;;;;;;;;;-0.30;99.90;;;;;;4862148;29;19927;-63
2023/03/08 02:49:27;;;;;;;;;;;-0.30;99.90;;;;;;4861802;29;19931;-64
2023/03/08 02:51:53;;;;;;;;;;;-0.30;99.90;;;;;;4861896;29;19928;-63
2023/03/08 02:54:18;;;;;;;;;;;-0.30;99.90;;;;;;4862040;29;20015;-64
2023/03/08 02:56:44;;;;;;;;;;;-0.30;99.90;;;;;;4861739;29;19931;-63
2023/03/08 02:59:10;;;;;;;;;;;-0.30;99.90;;;;;;4878669;29;19983;-64
2023/03/08 03:01:36;;;;;;;;;;;-0.20;99.90;;;;;;4861997;29;20326;-64
2023/03/08 03:04:01;;;;;;;;;;;-0.20;99.90;;;;;;4878583;29;19928;-64
2023/03/08 03:06:27;;;;;;;;;;;-0.20;99.90;;;;;;4878823;29;19935;-64
2023/03/08 03:08:52;;;;;;;;;;;-0.30;99.90;;;;;;4861465;29;20146;-62
2023/03/08 03:11:19;;;;;;;;;;;0.60;99.90;;;;;;4862174;29;19928;-63
2023/03/08 03:13:44;;;;;;;;;;;-0.30;99.90;;;;;;4878180;29;19935;-63
2023/03/08 03:16:12;;;;;;;;;;;-0.30;99.90;;;;;;4878455;29;19928;-62
2023/03/08 03:18:37;;;;;;;;;;;-0.20;99.90;;;;;;4861677;29;19928;-63
2023/03/08 03:21:04;;;;;;;;;;;-0.30;99.90;;;;;;4878094;29;19928;-63
2023/03/08 03:23:29;;;;;;;;;;;-0.30;99.90;;;;;;4861311;29;20034;-63
2023/03/08 03:25:55;;;;;;;;;;;-0.30;99.90;;;;;;4877719;29;20100;-62
2023/03/08 03:28:20;;;;;;;;;;;-0.30;99.90;;;;;;4876604;29;19928;-63
2023/03/08 03:30:46;;;;;;;;;;;-0.30;99.90;;;;;;4861091;29;19951;-64
2023/03/08 03:33:12;;;;;;;;;;;-0.30;99.90;;;;;;4845920;29;20018;-63
2023/03/08 03:35:38;;;;;;;;;;;-0.30;99.90;;;;;;4878021;29;19984;-64
2023/03/08 03:38:03;;;;;;;;;;;-0.30;99.90;;;;;;4877787;29;19928;-64
2023/03/08 03:40:29;;;;;;;;;;;-0.30;99.90;;;;;;4879267;29;20489;-63
2023/03/08 03:42:54;;;;;;;;;;;-0.20;99.90;;;;;;4864965;29;19927;-63
2023/03/08 03:45:20;;;;;;;;;;;-0.30;99.90;;;;;;4881499;29;19986;-63
2023/03/08 03:47:46;;;;;;;;;;;-0.30;99.90;;;;;;4879506;29;20327;-63
2023/03/08 03:50:12;;;;;;;;;;;-0.40;99.90;;;;;;4881656;29;19956;-63
2023/03/08 03:52:38;;;;;;;;;;;-0.40;99.90;;;;;;4881480;29;20372;-63
2023/03/08 03:55:04;;;;;;;;;;;-0.30;99.90;;;;;;4864593;29;19932;-63
2023/03/08 03:57:29;;;;;;;;;;;-0.30;99.90;;;;;;4881052;29;20022;-63
2023/03/08 03:59:55;;;;;;;;;;;-0.40;99.90;;;;;;4864529;29;19971;-64
2023/03/08 04:02:20;;;;;;;;;;;-0.30;99.90;;;;;;4865048;29;19935;-64
2023/03/08 04:04:48;;;;;;;;;;;-0.30;99.90;;;;;;4880865;29;20096;-64
2023/03/08 04:07:13;;;;;;;;;;;-0.30;99.90;;;;;;4864895;29;19939;-65
2023/03/08 04:09:39;;;;;;;;;;;-0.30;99.90;;;;;;4879880;29;19928;-63
2023/03/08 04:12:04;;;;;;;;;;;-0.20;99.90;;;;;;4880976;29;19935;-64
2023/03/08 04:14:30;;;;;;;;;;;-0.40;99.90;;;;;;4864453;29;20462;-63
2023/03/08 04:16:55;;;;;;;;;;;-0.20;99.90;;;;;;4880770;29;20019;-64
2023/03/08 04:19:21;;;;;;;;;;;-0.30;99.90;;;;;;4864561;29;20325;-63
2023/03/08 04:21:47;;;;;;;;;;;-0.40;99.90;;;;;;4880622;29;20039;-64
2023/03/08 04:24:12;;;;;;;;;;;-0.40;99.90;;;;;;4864258;29;19935;-63
2023/03/08 04:26:38;;;;;;;;;;;-0.40;99.90;;;;;;4864145;29;19988;-64
2023/03/08 04:29:05;;;;;;;;;;;-0.30;99.90;;;;;;4863845;29;20469;-63
2023/03/08 04:31:31;;;;;;;;;;;-0.40;99.90;;;;;;4879206;29;20404;-64
2023/03/08 04:34:00;;;;;;;;;;;-0.40;99.90;;;;;;4863802;29;19934;-65
2023/03/08 04:36:25;;;;;;;;;;;-0.30;99.90;;;;;;4879513;29;19928;-64
2023/03/08 04:38:51;;;;;;;;;;;-0.30;99.90;;;;;;4863984;29;20340;-63
2023/03/08 04:41:17;;;;;;;;;;;0.10;99.90;;;;;;4848651;29;19927;-63
2023/03/08 04:43:47;;;;;;;;;;;-0.40;99.90;;;;;;4880594;29;20372;-63
2023/03/08 04:46:13;;;;;;;;;;;-0.50;99.90;;;;;;4863573;29;20451;-63
2023/03/08 04:48:38;;;;;;;;;;;-0.50;99.90;;;;;;4880134;29;20023;-63
2023/03/08 04:51:06;;;;;;;;;;;-0.50;99.90;;;;;;4863116;29;20460;-64
2023/03/08 04:53:31;;;;;;;;;;;-0.50;99.90;;;;;;4864064;29;19928;-62
2023/03/08 04:56:00;;;;;;;;;;;-0.40;99.90;;;;;;4879953;29;19928;-62
2023/03/08 04:58:26;;;;;;;;;;;-0.40;99.90;;;;;;4848541;29;20434;-63
2023/03/08 05:00:52;;;;;;;;;;;-0.50;99.90;;;;;;4863373;29;19967;-62
2023/03/08 05:03:18;;;;;;;;;;;-0.10;99.90;;;;;;4880047;29;19994;-63
2023/03/08 05:05:47;;;;;;;;;;;-0.50;99.90;;;;;;4848050;29;20288;-63
2023/03/08 05:08:13;;;;;;;;;;;-0.50;99.90;;;;;;4863287;29;19971;-64
2023/03/08 05:10:39;;;;;;;;;;;-0.50;99.90;;;;;;4863491;29;19982;-63
2023/03/08 05:13:04;;;;;;;;;;;-0.50;99.90;;;;;;4862929;29;20023;-64
2023/03/08 05:15:30;;;;;;;;;;;-0.40;99.90;;;;;;4879703;29;20402;-62
2023/03/08 05:17:55;;;;;;;;;;;-0.40;99.90;;;;;;4863074;29;19935;-63
2023/03/08 05:20:21;;;;;;;;;;;-0.40;99.90;;;;;;4863124;29;19984;-64
2023/03/08 05:22:47;;;;;;;;;;;-0.40;99.90;;;;;;4878744;29;19995;-64
2023/03/08 05:25:12;;;;;;;;;;;-0.50;99.90;;;;;;4879230;29;19924;-64
2023/03/08 05:27:38;;;;;;;;;;;0.00;99.90;;;;;;4832984;29;19975;-62
2023/03/08 05:30:04;;;;;;;;;;;-0.40;99.90;;;;;;4879157;29;19955;-63
2023/03/08 05:32:29;;;;;;;;;;;-0.50;99.90;;;;;;4879667;29;19934;-64
2023/03/08 05:34:55;;;;;;;;;;;-0.50;99.90;;;;;;4879288;29;19927;-65
2023/03/08 05:37:24;;;;;;;;;;;-0.40;99.90;;;;;;4879478;29;19928;-63
2023/03/08 05:39:50;;;;;;;;;;;-0.40;99.90;;;;;;4879116;29;19934;-64
2023/03/08 05:42:16;;;;;;;;;;;0.20;99.90;;;;;;4878247;29;19925;-63
2023/03/08 05:44:41;;;;;;;;;;;0.30;99.90;;;;;;4862949;29;20402;-63
2023/03/08 05:47:07;;;;;;;;;;;0.10;99.90;;;;;;4879023;29;19928;-64
2023/03/08 05:49:33;;;;;;;;;;;-0.40;99.90;;;;;;4862791;29;20395;-64
2023/03/08 05:51:58;;;;;;;;;;;0.40;99.90;;;;;;4847086;29;19927;-64
2023/03/08 05:54:24;;;;;;;;;;;-0.40;99.90;;;;;;4879022;29;19978;-64
2023/03/08 05:56:49;;;;;;;;;;;-0.40;99.90;;;;;;4862529;29;19928;-63
2023/03/08 05:59:15;;;;;;;;;;;-0.40;99.90;;;;;;4847206;29;19932;-63
2023/03/08 06:01:40;;;;;;;;;;;-0.40;99.90;;;;;;4878892;29;20403;-64
2023/03/08 06:04:06;;;;;;;;;;;-0.40;99.90;;;;;;4878001;29;19928;-63
2023/03/08 06:06:31;;;;;;;;;;;-0.40;99.90;;;;;;4862104;29;19943;-63
2023/03/08 06:08:57;;;;;;;;;;;-0.40;99.90;;;;;;4878781;29;19928;-64
2023/03/08 06:11:23;;;;;;;;;;;-0.30;99.90;;;;;;4878510;29;19928;-63
2023/03/08 06:13:48;;;;;;;;;;;-0.40;99.90;;;;;;4862691;29;19932;-63
2023/03/08 06:16:14;;;;;;;;;;;-0.40;99.90;;;;;;4862174;29;19995;-63
2023/03/08 06:18:40;;;;;;;;;;;0.60;99.90;;;;;;4879130;29;20497;-63
2023/03/08 06:21:07;;;;;;;;;;;-0.40;99.90;;;;;;4861526;29;20273;-63
2023/03/08 06:23:33;;;;;;;;;;;-0.40;99.90;;;;;;4878126;29;19928;-63
2023/03/08 06:26:00;;;;;;;;;;;-0.30;99.90;;;;;;4878559;29;19928;-63
2023/03/08 06:28:26;;;;;;;;;;;0.00;99.90;;;;;;4878314;29;19928;-63
2023/03/08 06:30:52;;;;;;;;;;;-0.30;99.90;;;;;;4878670;29;19928;-63
2023/03/08 06:33:18;;;;;;;;;;;-0.10;99.90;;;;;;4878245;29;20014;-63
2023/03/08 06:35:54;;;;;;;;;;;0.00;99.90;;;;;;4877483;29;19932;-63
2023/03/08 06:38:19;;;;;;;;;;;-0.30;99.90;;;;;;4878383;29;20014;-63
2023/03/08 06:40:45;;;;;;;;;;;-0.30;99.90;;;;;;4878363;29;20023;-64
2023/03/08 06:43:10;;;;;;;;;;;-0.30;99.90;;;;;;4878058;29;19927;-62
2023/03/08 06:45:39;;;;;;;;;;;-0.20;99.90;;;;;;4861738;29;19979;-63
2023/03/08 06:48:05;;;;;;;;;;;-0.20;99.90;;;;;;4878082;29;19943;-64
2023/03/08 06:50:31;;;;;;;;;;;-0.20;99.90;;;;;;4846886;29;19956;-63
2023/03/08 06:52:56;;;;;;;;;;;-0.10;99.90;;;;;;4878374;29;20014;-64
2023/03/08 06:55:22;;;;;;;;;;;-0.10;99.90;;;;;;4877952;29;19992;-64
2023/03/08 06:57:48;;;;;;;;;;;0.00;99.90;;;;;;4878203;29;19928;-64
2023/03/08 07:00:14;;;;;;;;;;;0.10;99.90;;;;;;4878101;29;20026;-64
2023/03/08 07:02:40;;;;;;;;;;;0.10;99.90;;;;;;4878078;29;19936;-64
2023/03/08 07:05:05;;;;;;;;;;;0.10;99.90;;;;;;4877732;29;19934;-64
2023/03/08 07:07:31;;;;;;;;;;;0.20;99.90;;;;;;4877525;29;20369;-63
2023/03/08 07:09:57;;;;;;;;;;;0.30;99.90;;;;;;4878372;29;19928;-63
2023/03/08 07:12:23;;;;;;;;;;;0.30;99.90;;;;;;4877624;29;20018;-64
2023/03/08 07:14:50;;;;;;;;;;;0.80;99.90;;;;;;4862049;29;20015;-64
2023/03/08 07:17:16;;;;;;;;;;;0.40;99.90;;;;;;4864589;29;20289;-62
2023/03/08 07:19:41;;;;;;;;;;;0.40;99.90;;;;;;4865044;29;19980;-64
2023/03/08 07:22:07;;;;;;;;;;;0.50;99.90;;;;;;4849985;29;19928;-63
2023/03/08 07:24:32;;;;;;;;;;;0.70;99.90;;;;;;4881675;29;20026;-62
2023/03/08 07:26:58;;;;;;;;;;;0.60;99.90;;;;;;4881686;29;19934;-63
2023/03/08 07:29:23;;;;;;;;;;;0.60;99.90;;;;;;4864815;29;19932;-62
2023/03/08 07:31:49;;;;;;;;;;;0.60;99.90;;;;;;4865163;29;20306;-64
2023/03/08 07:34:15;;;;;;;;;;;0.70;99.90;;;;;;4881323;29;19928;-62
2023/03/08 07:36:40;;;;;;;;;;;0.80;99.90;;;;;;4834359;29;20014;-63
2023/03/08 07:39:06;;;;;;;;;;;0.60;99.90;;;;;;4881659;29;19928;-62
2023/03/08 07:41:33;;;;;;;;;;;0.70;99.90;;;;;;4881361;29;19997;-64
2023/03/08 07:43:59;;;;;;;;;;;0.60;99.90;;;;;;4881544;29;19928;-63
2023/03/08 07:46:25;;;;;;;;;;;0.70;99.90;;;;;;4880998;29;19979;-63
2023/03/08 07:48:51;;;;;;;;;;;0.80;99.90;;;;;;4881399;29;19927;-63
2023/03/08 07:51:16;;;;;;;;;;;0.80;99.90;;;;;;4881056;29;19935;-64
2023/03/08 07:53:42;;;;;;;;;;;0.90;99.90;;;;;;4864631;29;19928;-63
2023/03/08 07:56:08;;;;;;;;;;;0.90;99.90;;;;;;4864412;29;19927;-63
2023/03/08 07:58:34;;;;;;;;;;;1.00;99.90;;;;;;4880829;29;19939;-63
2023/03/08 08:00:59;;;;;;;;;;;1.10;99.90;;;;;;4880931;29;19928;-66
2023/03/08 08:03:25;;;;;;;;;;;1.20;99.90;;;;;;4880683;29;20276;-62
2023/03/08 08:05:50;;;;;;;;;;;1.20;99.90;;;;;;4879706;29;20114;-63
2023/03/08 08:08:16;;;;;;;;;;;1.30;99.90;;;;;;4880594;29;19928;-64
2023/03/08 08:10:42;;;;;;;;;;;1.40;99.90;;;;;;4880697;29;20368;-63
2023/03/08 08:13:08;;;;;;;;;;;1.40;99.90;;;;;;4881024;29;20011;-63
2023/03/08 08:15:34;;;;;;;;;;;2.10;99.90;;;;;;4880863;29;19979;-63
2023/03/08 08:18:00;;;;;;;;;;;1.50;99.90;;;;;;4864249;29;20379;-64
2023/03/08 08:20:25;;;;;;;;;;;1.60;99.90;;;;;;4880480;29;19976;-64
2023/03/08 08:22:54;;;;;;;;;;;1.60;99.90;;;;;;4881002;29;20026;-63
2023/03/08 08:25:20;;;;;;;;;;;1.60;99.90;;;;;;4863656;29;19983;-63
2023/03/08 08:27:46;;;;;;;;;;;1.60;99.90;;;;;;4848904;29;20332;-64
2023/03/08 08:30:12;;;;;;;;;;;1.70;99.90;;;;;;4880476;29;19980;-63
2023/03/08 08:32:38;;;;;;;;;;;1.70;99.90;;;;;;4863804;29;19931;-63
2023/03/08 08:35:03;;;;;;;;;;;1.70;99.90;;;;;;4880696;29;19939;-64
2023/03/08 08:37:30;;;;;;;;;;;1.80;99.90;;;;;;4880407;29;19927;-66
2023/03/08 08:39:56;;;;;;;;;;;1.80;99.90;;;;;;4880394;29;19975;-63
2023/03/08 08:42:22;;;;;;;;;;;1.90;99.90;;;;;;4863460;29;19932;-65
2023/03/08 08:44:47;;;;;;;;;;;1.90;99.90;;;;;;4863674;29;19928;-65
2023/03/08 08:47:13;;;;;;;;;;;2.00;99.90;;;;;;4880462;29;19934;-64
2023/03/08 08:49:38;;;;;;;;;;;2.20;99.90;;;;;;4863110;29;19935;-63
2023/03/08 08:52:04;;;;;;;;;;;2.40;99.90;;;;;;4848480;29;20011;-63
2023/03/08 08:54:31;;;;;;;;;;;2.50;99.90;;;;;;4879900;29;20284;-63
2023/03/08 08:56:57;;;;;;;;;;;2.70;99.90;;;;;;4863368;29;19948;-64
2023/03/08 08:59:22;;;;;;;;;;;2.80;99.90;;;;;;4862623;29;20312;-64
2023/03/08 09:01:48;;;;;;;;;;;2.80;99.90;;;;;;4879706;29;19991;-64
2023/03/08 09:04:15;;;;;;;;;;;2.90;99.90;;;;;;4863627;29;19999;-63
2023/03/08 09:06:41;;;;;;;;;;;3.00;99.90;;;;;;4878678;29;19939;-63
2023/03/08 09:09:07;;;;;;;;;;;3.10;99.90;;;;;;4880196;29;19928;-64
2023/03/08 09:11:33;;;;;;;;;;;3.10;99.90;;;;;;4879566;29;20355;-63
2023/03/08 09:13:59;;;;;;;;;;;3.30;99.90;;;;;;4863413;29;20015;-63
2023/03/08 09:16:26;;;;;;;;;;;3.50;99.90;;;;;;4879831;29;20027;-66
2023/03/08 09:18:52;;;;;;;;;;;3.50;99.90;;;;;;4879585;29;19936;-64
2023/03/08 09:21:18;;;;;;;;;;;3.50;99.90;;;;;;4879327;29;20536;-65
2023/03/08 09:23:43;;;;;;;;;;;3.50;99.90;;;;;;4862339;29;19935;-63
2023/03/08 09:26:09;;;;;;;;;;;3.50;99.90;;;;;;4879797;29;19928;-64
2023/03/08 09:28:35;;;;;;;;;;;3.40;99.90;;;;;;4879112;29;19957;-64
2023/03/08 09:31:06;;;;;;;;;;;3.50;99.90;;;;;;4863028;29;19928;-64
2023/03/08 09:33:32;;;;;;;;;;;3.50;99.90;;;;;;4879240;29;19960;-65
2023/03/08 09:35:58;;;;;;;;;;;3.50;99.90;;;;;;4863230;29;19947;-65
2023/03/08 09:38:23;;;;;;;;;;;3.50;99.90;;;;;;4878884;29;19931;-65
2023/03/08 09:41:06;;;;;;;;;;;3.60;99.90;;;;;;4847301;29;20396;-65
2023/03/08 09:43:41;;;;;;;;;;;3.60;99.90;;;;;;4879071;29;19950;-64
2023/03/08 09:46:11;;;;;;;;;;;3.70;99.90;;;;;;4879312;29;20026;-64
2023/03/08 09:48:37;;;;;;;;;;;3.70;99.90;;;;;;4878293;29;19928;-64
2023/03/08 09:51:09;;;;;;;;;;;3.70;99.90;;;;;;4862661;29;19934;-65
2023/03/08 09:53:53;;;;;;;;;;;3.80;99.90;;;;;;4878802;29;20005;-66
2023/03/08 09:56:19;;;;;;;;;;;3.80;99.90;;;;;;4879233;29;19927;-65
2023/03/08 09:58:44;;;;;;;;;;;3.70;99.90;;;;;;4878897;29;20037;-65
2023/03/08 10:01:48;;;;;;;;;;;3.70;99.90;;;;;;4862747;29;19935;-64
2023/03/08 10:04:20;;;;;;;;;;;3.70;99.90;;;;;;4839388;29;19977;-65
2023/03/08 10:06:55;;;;;;;;;;;3.70;99.90;;;;;;4839248;29;20246;-64
2023/03/08 10:09:35;;;;;;;;;;;3.70;99.90;;;;;;4861977;29;19928;-65
2023/03/08 10:12:20;;;;;;;;;;;3.80;99.90;;;;;;4879172;29;19927;-64
2023/03/08 10:14:48;;;;;;;;;;;3.80;99.90;;;;;;4862190;29;19927;-64
2023/03/08 10:17:23;;;;;;;;;;;3.90;99.90;;;;;;4862492;29;19932;-66
2023/03/08 10:19:55;;;;;;;;;;;3.80;99.90;;;;;;4877295;29;19971;-64
2023/03/08 10:22:24;;;;;;;;;;;3.90;99.90;;;;;;4877480;29;19935;-65
2023/03/08 10:24:53;;;;;;;;;;;4.00;99.90;;;;;;4861665;29;20381;-65
2023/03/08 10:27:23;;;;;;;;;;;4.10;99.90;;;;;;4862312;29;19963;-65
2023/03/08 10:29:53;;;;;;;;;;;4.30;99.90;;;;;;4878369;29;19938;-65
2023/03/08 10:32:19;;;;;;;;;;;4.30;99.90;;;;;;4878596;29;19984;-65
2023/03/08 10:34:45;;;;;;;;;;;4.40;99.90;;;;;;4878275;29;19960;-66
2023/03/08 10:37:11;;;;;;;;;;;4.50;99.90;;;;;;4862273;29;19928;-65
2023/03/08 10:39:46;;;;;;;;;;;4.60;99.90;;;;;;4846624;29;19934;-66
2023/03/08 10:42:13;;;;;;;;;;;4.60;99.90;;;;;;4878634;29;19975;-65
2023/03/08 10:44:56;;;;;;;;;;;4.60;99.90;;;;;;4877794;29;20447;-65
2023/03/08 10:47:26;;;;;;;;;;;4.70;99.90;;;;;;4878437;29;20010;-63
2023/03/08 10:50:07;;;;;;;;;;;4.70;99.90;;;;;;4877471;29;19927;-64
2023/03/08 10:52:33;;;;;;;;;;;4.80;99.90;;;;;;4878674;29;19950;-63
2023/03/08 10:55:03;;;;;;;;;;;4.90;99.90;;;;;;4878134;29;20014;-63
2023/03/08 10:57:29;;;;;;;;;;;4.90;99.90;;;;;;4878330;29;19971;-64
2023/03/08 10:59:57;;;;;;;;;;;4.90;99.90;;;;;;4861335;29;19982;-64
2023/03/08 11:02:23;;;;;;;;;;;4.90;99.90;;;;;;4878390;29;19943;-64
2023/03/08 11:04:49;;;;;;;;;;;4.90;99.90;;;;;;4878056;29;19999;-64
2023/03/08 11:07:26;;;;;;;;;;;4.90;99.90;;;;;;4878263;29;19928;-63
2023/03/08 11:10:03;;;;;;;;;;;4.90;99.90;;;;;;4877800;29;19928;-64
2023/03/08 11:12:28;;;;;;;;;;;4.80;99.90;;;;;;4846814;29;19931;-64
2023/03/08 11:14:54;;;;;;;;;;;4.80;99.90;;;;;;4861685;29;20439;-63
2023/03/08 11:17:27;;;;;;;;;;;4.70;99.90;;;;;;4878360;29;20296;-65
2023/03/08 11:20:08;;;;;;;;;;;4.80;99.90;;;;;;4845720;29;19963;-64
2023/03/08 11:22:49;;;;;;;;;;;4.80;99.90;;;;;;4878230;29;19938;-64
2023/03/08 11:25:33;;;;;;;;;;;4.90;99.90;;;;;;4861672;29;19975;-65
2023/03/08 11:28:17;;;;;;;;;;;4.90;99.90;;;;;;4877282;29;20383;-64
2023/03/08 11:30:43;;;;;;;;;;;4.90;99.90;;;;;;4878079;29;20022;-65
2023/03/08 11:33:27;;;;;;;;;;;4.90;99.90;;;;;;4878141;29;19967;-64
2023/03/08 11:35:53;;;;;;;;;;;4.90;99.90;;;;;;4877562;29;19928;-64
2023/03/08 11:38:21;;;;;;;;;;;5.10;99.90;;;;;;4878115;29;19935;-64
2023/03/08 11:40:46;;;;;;;;;;;5.10;99.90;;;;;;4861110;29;19928;-65
2023/03/08 11:43:15;;;;;;;;;;;5.20;99.90;;;;;;4878107;29;20003;-64
2023/03/08 11:45:43;;;;;;;;;;;5.20;99.90;;;;;;4877808;29;20398;-64
2023/03/08 11:48:23;;;;;;;;;;;5.20;99.90;;;;;;4877507;29;19927;-63
2023/03/08 11:50:57;;;;;;;;;;;5.20;99.90;;;;;;4877871;29;20285;-64
2023/03/08 11:53:42;;;;;;;;;;;5.20;99.90;;;;;;4861500;29;20011;-64
2023/03/08 11:56:16;;;;;;;;;;;5.20;99.90;;;;;;4877759;29;19932;-63
2023/03/08 11:58:50;;;;;;;;;;;5.10;99.90;;;;;;4878044;29;20053;-65
2023/03/08 12:01:18;;;;;;;;;;;5.10;99.90;;;;;;4862366;29;19928;-65
2023/03/08 12:03:46;;;;;;;;;;;5.10;99.90;;;;;;4881329;29;20034;-63
2023/03/08 12:06:15;;;;;;;;;;;5.10;99.90;;;;;;4880627;29;20391;-64
2023/03/08 12:08:59;;;;;;;;;;;5.00;99.90;;;;;;4881241;29;19927;-63
2023/03/08 12:11:30;;;;;;;;;;;4.90;99.90;;;;;;4881181;29;19934;-64
2023/03/08 12:14:16;;;;;;;;;;;5.00;99.90;;;;;;4880774;29;19984;-65
2023/03/08 12:16:46;;;;;;;;;;;5.10;99.90;;;;;;4881267;29;20299;-65
2023/03/08 12:19:14;;;;;;;;;;;5.20;99.90;;;;;;4881060;29;20026;-63
2023/03/08 12:21:44;;;;;;;;;;;5.20;99.90;;;;;;4880990;29;19928;-64
2023/03/08 12:24:31;;;;;;;;;;;5.30;99.90;;;;;;4880756;29;19924;-64
2023/03/08 12:27:08;;;;;;;;;;;5.30;99.90;;;;;;4880267;29;19939;-65
2023/03/08 12:29:39;;;;;;;;;;;5.30;99.90;;;;;;4880737;29;20442;-64
2023/03/08 12:32:06;;;;;;;;;;;5.30;99.90;;;;;;4863893;29;19935;-64
2023/03/08 12:34:34;;;;;;;;;;;5.30;99.90;;;;;;4864326;29;19928;-64
2023/03/08 12:37:00;;;;;;;;;;;5.30;99.90;;;;;;4880218;29;20055;-64
2023/03/08 12:39:33;;;;;;;;;;;5.30;99.90;;;;;;4864008;29;20352;-64
2023/03/08 12:42:02;;;;;;;;;;;5.20;99.90;;;;;;4863482;29;19967;-64
2023/03/08 12:44:29;;;;;;;;;;;5.20;99.90;;;;;;4864149;29;19928;-64
2023/03/08 12:46:54;;;;;;;;;;;5.20;99.90;;;;;;4863808;29;19928;-65
2023/03/08 12:49:20;;;;;;;;;;;5.10;99.90;;;;;;4880574;29;20439;-63
2023/03/08 12:51:55;;;;;;;;;;;5.20;99.90;;;;;;4880497;29;20615;-64
2023/03/08 12:54:21;;;;;;;;;;;5.10;99.90;;;;;;4880827;29;19934;-64
2023/03/08 12:56:49;;;;;;;;;;;5.10;99.90;;;;;;4880467;29;19935;-65
2023/03/08 12:59:14;;;;;;;;;;;5.20;99.90;;;;;;4879899;29;19923;-63
2023/03/08 13:01:41;;;;;;;;;;;5.20;99.90;;;;;;4880244;29;20248;-64
2023/03/08 13:04:25;;;;;;;;;;;5.20;99.90;;;;;;4863288;29;19938;-65
2023/03/08 13:06:51;;;;;;;;;;;5.20;99.90;;;;;;4880321;29;19927;-65
2023/03/08 13:09:23;;;;;;;;;;;5.20;99.90;;;;;;4848220;29;20267;-65
2023/03/08 13:11:53;;;;;;;;;;;5.20;99.90;;;;;;4863206;29;19935;-65
2023/03/08 13:14:45;;;;;;;;;;;5.10;99.90;;;;;;4879103;29;19977;-64
2023/03/08 13:17:29;;;;;;;;;;;5.10;99.90;;;;;;4861107;29;19928;-64
2023/03/08 13:20:00;;;;;;;;;;;5.10;99.90;;;;;;4879916;29;19935;-65
2023/03/08 13:22:28;;;;;;;;;;;5.10;99.90;;;;;;4879901;29;19944;-64
2023/03/08 13:24:55;;;;;;;;;;;5.10;99.90;;;;;;4879178;29;19939;-65
2023/03/08 13:27:40;;;;;;;;;;;5.20;99.90;;;;;;4879622;29;19934;-65
2023/03/08 13:30:17;;;;;;;;;;;5.10;99.90;;;;;;4879087;29;20407;-65
2023/03/08 13:32:43;;;;;;;;;;;5.10;99.90;;;;;;4863247;29;19935;-65
2023/03/08 13:35:14;;;;;;;;;;;5.10;99.90;;;;;;4879139;29;19928;-65
2023/03/08 13:37:39;;;;;;;;;;;5.10;99.90;;;;;;4863172;29;20026;-65
2023/03/08 13:40:16;;;;;;;;;;;5.10;99.90;;;;;;4879447;29;20049;-64
2023/03/08 13:42:56;;;;;;;;;;;5.10;99.90;;;;;;4848138;29;20022;-64
2023/03/08 13:45:22;;;;;;;;;;;5.00;99.90;;;;;;4879119;29;20037;-65
2023/03/08 13:47:48;;;;;;;;;;;5.10;99.90;;;;;;4879674;29;19932;-64
2023/03/08 13:50:19;;;;;;;;;;;5.00;99.90;;;;;;4878731;29;19932;-64
2023/03/08 13:52:44;;;;;;;;;;;5.00;99.90;;;;;;4879589;29;20000;-64
2023/03/08 13:55:18;;;;;;;;;;;5.00;99.90;;;;;;4862494;29;20383;-64
2023/03/08 13:57:46;;;;;;;;;;;5.00;99.90;;;;;;4863121;29;20452;-63
2023/03/08 14:00:31;;;;;;;;;;;5.00;99.90;;;;;;4879099;29;19928;-64
2023/03/08 14:02:57;;;;;;;;;;;5.00;99.90;;;;;;4879399;29;19927;-64
2023/03/08 14:05:27;;;;;;;;;;;5.00;99.90;;;;;;4846796;29;19928;-65
2023/03/08 14:08:02;;;;;;;;;;;5.00;99.90;;;;;;4847406;29;19928;-65
2023/03/08 14:10:30;;;;;;;;;;;4.90;99.90;;;;;;4879386;29;19987;-66
2023/03/08 14:12:56;;;;;;;;;;;4.90;99.90;;;;;;4879016;29;20022;-65
2023/03/08 14:15:22;;;;;;;;;;;5.00;99.90;;;;;;4862497;29;20388;-65
2023/03/08 14:17:47;;;;;;;;;;;5.00;99.90;;;;;;4879142;29;20159;-64
2023/03/08 14:20:21;;;;;;;;;;;4.90;99.90;;;;;;4878905;29;19932;-65
2023/03/08 14:22:48;;;;;;;;;;;5.00;99.90;;;;;;4879491;29;20022;-65
2023/03/08 14:25:30;;;;;;;;;;;5.00;99.90;;;;;;4861743;29;19986;-65
2023/03/08 14:27:56;;;;;;;;;;;5.00;99.90;;;;;;4879139;29;20320;-64
2023/03/08 14:30:23;;;;;;;;;;;5.00;99.90;;;;;;4862474;29;19935;-65